Time;durP1;ratioP1;P1;durP2;ratioP2;P2;SDS_P1;SDS_P2;PMS_P1;PMS_P2;Temp;Humidity;BMP_temperature;BMP_pressure;BME280_temperature;BME280_humidity;BME280_pressure;Samples;Min_cycle;Max_cycle;Signal;HPM_P1;HPM_P2
2022/01/28 00:01:47;;;;;;;17.83;4.30;;;3.40;99.90;;;;;;4973988;28;20051;-86
2022/01/28 00:04:15;;;;;;;14.13;3.10;;;3.40;99.90;;;;;;4975218;28;20042;-86
2022/01/28 00:06:41;;;;;;;14.83;2.77;;;3.40;99.90;;;;;;4973858;28;20215;-86
2022/01/28 00:09:07;;;;;;;13.97;3.37;;;3.40;99.90;;;;;;4974533;28;20051;-86
2022/01/28 00:11:33;;;;;;;20.30;3.17;;;4.60;99.90;;;;;;4974760;28;20054;-86
2022/01/28 00:20:25;;;;;;;20.07;3.47;;;3.00;99.90;;;;;;4975522;28;20051;-85
2022/01/28 00:36:43;;;;;;;15.65;3.42;;;3.40;99.90;;;;;;4974653;28;20054;-86
2022/01/28 00:39:11;;;;;;;20.97;3.27;;;3.40;99.90;;;;;;4974180;28;20058;-86
2022/01/28 00:41:37;;;;;;;19.67;3.80;;;3.40;99.90;;;;;;4973332;28;20054;-86
2022/01/28 00:44:03;;;;;;;18.17;3.23;;;3.40;99.90;;;;;;4973662;28;20057;-85
2022/01/28 00:46:28;;;;;;;17.50;3.30;;;3.50;99.90;;;;;;4973810;28;20057;-86
2022/01/28 00:48:56;;;;;;;14.57;2.53;;;3.40;99.90;;;;;;4973262;28;20439;-85
2022/01/28 00:51:27;;;;;;;16.67;3.13;;;4.20;99.90;;;;;;4973982;28;20054;-86
2022/01/28 00:53:59;;;;;;;18.27;3.27;;;3.40;99.90;;;;;;4973783;28;20082;-86
2022/01/28 00:56:37;;;;;;;17.80;3.10;;;3.40;99.90;;;;;;4972902;28;20053;-86
2022/01/28 00:59:05;;;;;;;16.67;2.47;;;3.50;99.90;;;;;;4973894;28;20506;-86
2022/01/28 01:01:43;;;;;;;15.07;2.50;;;3.60;99.90;;;;;;4973497;28;20034;-86
2022/01/28 01:04:29;;;;;;;18.73;3.07;;;3.50;99.90;;;;;;4972820;28;20056;-86
2022/01/28 01:07:04;;;;;;;16.10;2.63;;;3.70;99.90;;;;;;4973251;28;20186;-86
2022/01/28 01:09:29;;;;;;;15.57;2.77;;;3.50;99.90;;;;;;4974556;28;20051;-86
2022/01/28 01:11:55;;;;;;;17.40;3.07;;;3.60;99.90;;;;;;4973101;28;20042;-86
2022/01/28 01:14:20;;;;;;;15.07;2.67;;;3.70;99.90;;;;;;4973428;28;20050;-86
2022/01/28 01:17:35;;;;;;;12.07;2.40;;;3.70;99.90;;;;;;4973169;28;20039;-86
2022/01/28 01:19:43;;;;;;;16.83;2.20;;;4.70;99.90;;;;;;4967772;28;20491;-86
2022/01/28 01:22:09;;;;;;;12.00;2.20;;;3.50;99.90;;;;;;4973533;28;20063;-86
2022/01/28 01:24:36;;;;;;;12.77;2.50;;;3.60;99.90;;;;;;4974001;28;20042;-86
2022/01/28 01:27:14;;;;;;;11.87;2.30;;;3.50;99.90;;;;;;4974699;28;20364;-86
2022/01/28 01:29:43;;;;;;;16.00;2.63;;;3.50;99.90;;;;;;4972688;28;20047;-86
2022/01/28 01:32:14;;;;;;;10.90;2.37;;;3.60;99.90;;;;;;4972524;28;20039;-86
2022/01/28 01:34:39;;;;;;;13.90;2.30;;;3.70;99.90;;;;;;4972881;28;20043;-86
2022/01/28 01:37:10;;;;;;;17.70;2.50;;;3.60;99.90;;;;;;4973298;28;20046;-86
2022/01/28 01:39:37;;;;;;;19.87;5.57;;;3.70;99.90;;;;;;4973466;28;20053;-86
2022/01/28 01:42:28;;;;;;;15.53;2.60;;;3.80;99.90;;;;;;4973454;28;20031;-86
2022/01/28 01:53:13;;;;;;;12.83;2.83;;;4.40;99.90;;;;;;4945443;28;20058;-86
2022/01/28 01:55:39;;;;;;;17.87;2.83;;;4.20;99.90;;;;;;4972661;28;20042;-86
2022/01/28 01:58:05;;;;;;;17.33;2.80;;;4.20;99.90;;;;;;4972420;28;20051;-86
2022/01/28 02:00:30;;;;;;;13.43;2.70;;;4.20;99.90;;;;;;4971640;28;20049;-87
2022/01/28 02:02:56;;;;;;;20.50;2.90;;;4.00;99.90;;;;;;4972724;28;20415;-87
2022/01/28 02:05:21;;;;;;;15.83;2.67;;;4.00;99.90;;;;;;4973087;28;20405;-86
2022/01/28 02:07:48;;;;;;;14.00;2.70;;;3.90;99.90;;;;;;4971997;28;20042;-86
2022/01/28 02:10:14;;;;;;;16.50;3.00;;;4.00;99.90;;;;;;4973065;28;20487;-86
2022/01/28 02:12:49;;;;;;;16.63;2.80;;;3.90;99.90;;;;;;4972350;28;20093;-86
2022/01/28 02:15:15;;;;;;;13.27;2.30;;;3.80;99.90;;;;;;4971718;28;20050;-86
2022/01/28 02:17:41;;;;;;;14.23;2.60;;;3.80;99.90;;;;;;4973465;28;20043;-86
2022/01/28 02:20:09;;;;;;;17.57;2.80;;;3.90;99.90;;;;;;4972474;28;20047;-86
2022/01/28 02:22:35;;;;;;;16.03;2.87;;;4.10;99.90;;;;;;4971366;28;20094;-86
2022/01/28 02:25:04;;;;;;;16.47;3.13;;;4.20;99.90;;;;;;4972440;28;20411;-86
2022/01/28 02:27:29;;;;;;;15.37;3.30;;;4.10;99.90;;;;;;4971535;28;20133;-86
2022/01/28 02:29:56;;;;;;;17.07;2.87;;;4.10;99.90;;;;;;4972437;28;20093;-86
2022/01/28 02:32:22;;;;;;;15.67;2.80;;;4.10;99.90;;;;;;4972698;28;20125;-87
2022/01/28 02:35:00;;;;;;;18.97;3.83;;;4.10;99.90;;;;;;4971275;28;20050;-86
2022/01/28 02:37:25;;;;;;;21.87;3.50;;;4.10;99.90;;;;;;4972218;28;20047;-86
2022/01/28 02:39:54;;;;;;;14.47;2.80;;;3.90;99.90;;;;;;4972746;28;20097;-86
2022/01/28 02:42:44;;;;;;;18.50;3.80;;;3.90;99.90;;;;;;4971653;28;20618;-86
2022/01/28 02:45:29;;;;;;;20.43;3.10;;;3.80;99.90;;;;;;4971101;28;20129;-86
2022/01/28 02:48:00;;;;;;;12.60;2.63;;;4.00;99.90;;;;;;4972427;28;20058;-86
2022/01/28 02:50:44;;;;;;;21.40;6.03;;;4.10;99.90;;;;;;4971573;28;20476;-86
2022/01/28 02:53:21;;;;;;;18.23;3.43;;;3.90;99.90;;;;;;4973637;28;20081;-86
2022/01/28 02:56:03;;;;;;;18.03;2.80;;;4.00;99.90;;;;;;4974500;28;20558;-86
2022/01/28 02:58:32;;;;;;;20.37;3.60;;;4.00;99.90;;;;;;4972342;28;20509;-86
2022/01/28 03:01:13;;;;;;;20.53;3.30;;;4.00;99.90;;;;;;4973437;28;20047;-86
2022/01/28 03:03:40;;;;;;;16.60;2.83;;;4.30;99.90;;;;;;4970725;28;20054;-87
2022/01/28 03:06:05;;;;;;;16.60;2.50;;;4.10;99.90;;;;;;4971907;28;20522;-86
2022/01/28 03:08:31;;;;;;;16.23;3.03;;;4.30;99.90;;;;;;4972295;28;20086;-86
2022/01/28 03:13:33;;;;;;;18.30;3.13;;;4.30;99.90;;;;;;4976582;28;20058;-86
2022/01/28 03:16:08;;;;;;;16.92;3.00;;;4.40;99.90;;;;;;4975433;28;20042;-86
2022/01/28 03:18:56;;;;;;;19.17;3.20;;;4.40;99.90;;;;;;4975297;28;20051;-86
2022/01/28 03:24:01;;;;;;;16.67;2.70;;;4.50;99.90;;;;;;4974716;28;20723;-87
2022/01/28 03:26:28;;;;;;;18.50;3.77;;;4.30;99.90;;;;;;4975677;28;20499;-86
2022/01/28 03:28:54;;;;;;;23.20;3.30;;;4.20;99.90;;;;;;4975825;28;20104;-86
2022/01/28 03:31:38;;;;;;;19.07;3.63;;;4.30;99.90;;;;;;4976120;28;20459;-86
2022/01/28 03:34:04;;;;;;;;;;;4.20;99.90;;;;;;4976326;28;20047;-86
2022/01/28 03:36:29;;;;;;;20.57;3.27;;;5.20;99.90;;;;;;4975195;28;20335;-86
2022/01/28 03:38:55;;;;;;;16.33;3.40;;;4.30;99.90;;;;;;4974478;28;20043;-87
2022/01/28 03:41:23;;;;;;;16.67;3.10;;;5.80;99.90;;;;;;4976658;28;20121;-86
2022/01/28 03:43:49;;;;;;;17.43;2.70;;;4.20;99.90;;;;;;4976162;28;20104;-86
2022/01/28 03:46:15;;;;;;;16.03;3.10;;;4.40;99.90;;;;;;4974480;28;20170;-86
2022/01/28 03:48:42;;;;;;;20.87;3.90;;;4.40;99.90;;;;;;4974848;28;20038;-86
2022/01/28 03:51:10;;;;;;;20.90;3.67;;;4.40;99.90;;;;;;4974715;28;20051;-86
2022/01/28 03:53:39;;;;;;;20.43;4.97;;;4.40;99.90;;;;;;4973854;28;20042;-87
2022/01/28 03:56:07;;;;;;;18.83;2.93;;;5.20;99.90;;;;;;4976256;28;20042;-87
2022/01/28 03:58:32;;;;;;;19.07;3.23;;;4.30;99.90;;;;;;4975076;28;20133;-87
2022/01/28 04:00:58;;;;;;;19.67;3.40;;;4.30;99.90;;;;;;4976736;28;20050;-87
2022/01/28 04:11:26;;;;;;;18.40;2.90;;;4.40;99.90;;;;;;4974160;28;20046;-86
2022/01/28 04:11:39;;;;;;;21.65;3.65;;;4.40;99.90;;;;;;4974505;28;20499;-87
2022/01/28 04:14:20;;;;;;;21.37;3.20;;;4.30;99.90;;;;;;4973645;28;20483;-86
2022/01/28 04:19:30;;;;;;;21.75;3.67;;;4.30;99.90;;;;;;4974360;28;20462;-87
2022/01/28 04:21:55;;;;;;;18.00;3.43;;;4.50;99.90;;;;;;4973005;28;20142;-87
2022/01/28 04:24:21;;;;;;;23.07;3.37;;;4.40;99.90;;;;;;4957749;28;20408;-86
2022/01/28 04:26:50;;;;;;;18.07;3.27;;;4.50;99.90;;;;;;4958370;28;20047;-86
2022/01/28 04:29:15;;;;;;;20.40;3.63;;;4.50;99.90;;;;;;4958196;28;20175;-86
2022/01/28 04:31:45;;;;;;;18.80;3.80;;;4.50;99.90;;;;;;4957798;28;20050;-87
2022/01/28 04:34:14;;;;;;;25.97;3.33;;;4.40;99.90;;;;;;4957290;28;20047;-87
2022/01/28 04:39:30;;;;;;;19.10;3.10;;;5.40;99.90;;;;;;4959997;28;20059;-87
2022/01/28 04:42:44;;;;;;;19.70;3.87;;;4.30;99.90;;;;;;4957558;28;20415;-86
2022/01/28 04:47:35;;;;;;;18.87;3.60;;;4.20;99.90;;;;;;4958098;28;20134;-87
2022/01/28 04:50:42;;;;;;;19.23;4.23;;;4.20;99.90;;;;;;4958542;28;20055;-87
2022/01/28 04:55:56;;;;;;;21.65;3.55;;;4.00;99.90;;;;;;4956740;28;20133;-87
2022/01/28 05:06:31;;;;;;;16.87;3.10;;;3.60;99.90;;;;;;4957367;28;20054;-86
2022/01/28 05:11:49;;;;;;;17.80;2.83;;;3.50;99.90;;;;;;4957213;28;20144;-87
2022/01/28 05:14:47;;;;;;;20.50;3.40;;;3.40;99.90;;;;;;4957106;28;20078;-87
2022/01/28 05:27:38;;;;;;;16.50;2.70;;;3.40;99.90;;;;;;4957935;28;20061;-87
2022/01/28 05:30:06;;;;;;;19.17;3.03;;;3.40;99.90;;;;;;4957328;28;20525;-87
2022/01/28 05:32:32;;;;;;;21.87;3.57;;;3.40;99.90;;;;;;4956539;28;20047;-88
2022/01/28 05:34:57;;;;;;;20.20;3.50;;;3.40;99.90;;;;;;4956092;28;20483;-87
2022/01/28 05:37:23;;;;;;;17.33;3.30;;;3.40;99.90;;;;;;4956397;28;20042;-87
2022/01/28 05:39:48;;;;;;;24.47;3.83;;;3.30;99.90;;;;;;4956950;28;20038;-87
2022/01/28 05:42:14;;;;;;;15.77;3.00;;;3.20;99.90;;;;;;4957368;28;20054;-87
2022/01/28 05:44:39;;;;;;;19.10;3.00;;;3.20;99.90;;;;;;4973151;28;20074;-87
2022/01/28 05:47:05;;;;;;;19.10;3.57;;;3.20;99.90;;;;;;4956423;28;20054;-87
2022/01/28 05:49:31;;;;;;;20.43;3.20;;;3.20;99.90;;;;;;4973526;28;20042;-86
2022/01/28 05:51:57;;;;;;;23.90;3.30;;;3.10;99.90;;;;;;4955928;28;20046;-87
2022/01/28 05:54:23;;;;;;;22.50;3.30;;;3.10;99.90;;;;;;4957228;28;20057;-87
2022/01/28 05:56:48;;;;;;;19.07;3.03;;;3.00;99.90;;;;;;4956767;28;20078;-87
2022/01/28 05:59:14;;;;;;;18.80;3.10;;;2.80;99.90;;;;;;4956290;28;20042;-87
2022/01/28 06:01:39;;;;;;;20.13;3.40;;;2.90;99.90;;;;;;4973848;28;20050;-87
2022/01/28 06:04:05;;;;;;;18.23;3.10;;;2.90;99.90;;;;;;4974088;28;20045;-87
2022/01/28 06:06:32;;;;;;;25.30;3.80;;;2.80;99.90;;;;;;4955537;28;20447;-86
2022/01/28 06:09:11;;;;;;;18.30;3.00;;;2.90;99.90;;;;;;4957274;28;20137;-87
2022/01/28 06:11:46;;;;;;;18.07;3.70;;;2.70;99.90;;;;;;4957311;28;20047;-87
2022/01/28 06:14:11;;;;;;;20.93;3.77;;;2.80;99.90;;;;;;4955950;28;20062;-87
2022/01/28 06:16:37;;;;;;;24.53;4.20;;;2.70;99.90;;;;;;4955998;28;20055;-87
2022/01/28 06:19:08;;;;;;;20.83;4.43;;;4.70;99.90;;;;;;4956476;28;20042;-87
2022/01/28 06:21:40;;;;;;;22.70;3.40;;;2.80;99.90;;;;;;4956171;28;20043;-87
2022/01/28 06:24:06;;;;;;;20.97;3.60;;;2.80;99.90;;;;;;4970756;28;20046;-87
2022/01/28 06:26:32;;;;;;;15.87;2.80;;;3.00;99.90;;;;;;4955327;28;20138;-86
2022/01/28 06:28:57;;;;;;;19.77;3.03;;;3.10;99.90;;;;;;4956509;28;20060;-87
2022/01/28 06:31:33;;;;;;;21.37;3.97;;;3.10;99.90;;;;;;4956535;28;20074;-87
2022/01/28 06:33:58;;;;;;;22.13;3.60;;;3.30;99.90;;;;;;4957873;28;20047;-87
2022/01/28 06:36:30;;;;;;;17.00;3.63;;;3.30;99.90;;;;;;4956640;28;20051;-87
2022/01/28 06:38:58;;;;;;;17.73;2.93;;;3.30;99.90;;;;;;4956675;28;20521;-87
2022/01/28 06:41:24;;;;;;;16.93;3.10;;;3.40;99.90;;;;;;4957247;28;20109;-87
2022/01/28 06:43:53;;;;;;;18.53;3.50;;;3.50;99.90;;;;;;4956452;28;20550;-87
2022/01/28 06:46:18;;;;;;;15.63;3.37;;;3.40;99.90;;;;;;4959885;28;20042;-87
2022/01/28 06:48:44;;;;;;;18.70;3.30;;;3.60;99.90;;;;;;4959508;28;20812;-87
2022/01/28 06:51:10;;;;;;;17.37;3.60;;;3.70;99.90;;;;;;4960710;28;20047;-87
2022/01/28 06:53:35;;;;;;;19.40;3.70;;;3.60;99.90;;;;;;4960935;28;20129;-86
2022/01/28 06:56:01;;;;;;;16.67;3.40;;;3.60;99.90;;;;;;4960171;28;20439;-87
2022/01/28 06:58:26;;;;;;;17.53;3.37;;;3.70;99.90;;;;;;4977707;28;20081;-87
2022/01/28 07:00:52;;;;;;;18.10;3.70;;;3.60;99.90;;;;;;4961012;28;20051;-87
2022/01/28 07:03:18;;;;;;;19.10;3.03;;;3.80;99.90;;;;;;4977247;28;20042;-87
2022/01/28 07:05:49;;;;;;;17.03;3.40;;;3.90;99.90;;;;;;4960135;28;20070;-88
2022/01/28 07:08:15;;;;;;;23.80;4.50;;;3.90;99.90;;;;;;4960087;28;20058;-88
2022/01/28 07:10:44;;;;;;;19.30;3.37;;;4.40;99.90;;;;;;4958971;28;20046;-88
2022/01/28 07:13:14;;;;;;;17.43;3.10;;;4.00;99.90;;;;;;4977168;28;20081;-88
2022/01/28 07:15:43;;;;;;;16.90;3.47;;;4.30;99.90;;;;;;4959529;28;20047;-89
2022/01/28 07:18:08;;;;;;;22.20;3.50;;;5.10;99.90;;;;;;4959766;28;20054;-88
2022/01/28 07:20:40;;;;;;;19.57;3.47;;;4.10;99.90;;;;;;4976898;28;20047;-87
2022/01/28 07:23:06;;;;;;;22.37;3.63;;;3.70;99.90;;;;;;4966785;28;20061;-88
2022/01/28 07:25:31;;;;;;;21.07;3.57;;;3.80;99.90;;;;;;4975336;28;20055;-88
2022/01/28 07:27:57;;;;;;;14.10;3.10;;;3.90;99.90;;;;;;4975962;28;20757;-88
2022/01/28 07:30:39;;;;;;;19.17;3.90;;;3.90;99.90;;;;;;4975948;28;20174;-88
2022/01/28 07:33:09;;;;;;;24.37;4.17;;;3.80;99.90;;;;;;4975970;28;20046;-92
2022/01/28 07:35:37;;;;;;;17.10;3.33;;;3.70;99.90;;;;;;4975726;28;20050;-94
2022/01/28 07:38:03;;;;;;;18.43;3.40;;;3.60;99.90;;;;;;4972483;28;20503;-93
2022/01/28 07:40:29;;;;;;;20.10;3.57;;;3.50;99.90;;;;;;4972432;28;20070;-93
2022/01/28 07:42:54;;;;;;;23.87;3.83;;;3.60;99.90;;;;;;4975287;28;20042;-92
2022/01/28 07:45:20;;;;;;;19.83;3.10;;;3.50;99.90;;;;;;4979836;28;20050;-92
2022/01/28 07:47:46;;;;;;;25.23;4.23;;;3.50;99.90;;;;;;4980257;23;20058;-93
2022/01/28 07:50:13;;;;;;;17.77;3.30;;;3.40;99.90;;;;;;4975828;28;20045;-92
2022/01/28 07:52:42;;;;;;;24.77;4.20;;;4.00;99.90;;;;;;4974907;28;20104;-90
2022/01/28 07:55:11;;;;;;;19.07;3.30;;;4.90;99.90;;;;;;4976227;28;20042;-92
2022/01/28 07:57:37;;;;;;;13.70;2.90;;;4.40;99.90;;;;;;4972419;28;20076;-90
2022/01/28 08:00:10;;;;;;;16.60;3.30;;;3.70;99.90;;;;;;4959318;28;20619;-90
2022/01/28 08:02:48;;;;;;;16.33;3.33;;;3.70;99.90;;;;;;4959046;28;20049;-91
2022/01/28 08:05:13;;;;;;;16.03;3.50;;;3.50;99.90;;;;;;4958844;28;20846;-91
2022/01/28 08:07:39;;;;;;;20.33;4.20;;;5.20;99.90;;;;;;4959024;28;20426;-90
2022/01/28 08:10:05;;;;;;;25.37;3.60;;;3.50;99.90;;;;;;4959139;28;20403;-90
2022/01/28 08:12:48;;;;;;;19.07;3.17;;;3.70;99.90;;;;;;4958455;28;20034;-91
2022/01/28 08:15:20;;;;;;;20.67;3.80;;;4.70;99.90;;;;;;5130965;23;20053;-91
2022/01/28 08:17:46;;;;;;;18.30;3.33;;;3.60;99.90;;;;;;5037424;28;20484;-91
2022/01/28 08:20:30;;;;;;;17.70;3.80;;;3.00;99.90;;;;;;5036930;28;20045;-91
2022/01/28 08:22:59;;;;;;;19.05;3.58;;;3.20;99.90;;;;;;5036903;28;20079;-90
2022/01/28 08:25:55;;;;;;;28.90;3.95;;;3.30;99.90;;;;;;5055063;28;20115;-90
2022/01/28 08:28:21;;;;;;;21.70;5.87;;;3.10;99.90;;;;;;5037021;28;20068;-87
2022/01/28 08:30:50;;;;;;;29.77;10.73;;;3.30;99.90;;;;;;5053212;28;20469;-90
2022/01/28 08:33:15;;;;;;;22.90;6.20;;;4.30;99.90;;;;;;5036087;28;20040;-89
2022/01/28 08:35:41;;;;;;;22.80;4.23;;;3.50;99.90;;;;;;5039914;28;20175;-89
2022/01/28 08:38:30;;;;;;;22.47;3.57;;;3.40;99.90;;;;;;5036082;28;20045;-89
2022/01/28 08:40:58;;;;;;;19.07;3.20;;;5.10;99.90;;;;;;5035816;28;20371;-89
2022/01/28 08:43:25;;;;;;;17.97;3.33;;;3.70;99.90;;;;;;5035929;28;20139;-89
2022/01/28 08:45:55;;;;;;;17.03;3.60;;;3.90;99.90;;;;;;5053792;28;20120;-88
2022/01/28 08:48:33;;;;;;;19.93;3.90;;;4.40;99.90;;;;;;5035326;28;20424;-89
2022/01/28 08:51:06;;;;;;;16.43;3.27;;;4.00;99.90;;;;;;5036532;28;20136;-88
2022/01/28 08:53:32;;;;;;;17.55;3.53;;;4.00;99.90;;;;;;5041497;22;20041;-89
2022/01/28 08:55:58;;;;;;;21.17;4.00;;;3.90;99.90;;;;;;5015320;28;20083;-88
2022/01/28 08:58:23;;;;;;;15.13;3.20;;;4.00;99.90;;;;;;5051444;23;20059;-89
2022/01/28 09:01:04;;;;;;;16.03;3.67;;;3.90;99.90;;;;;;5051871;28;20049;-90
2022/01/28 09:03:39;;;;;;;17.27;3.10;;;3.60;99.90;;;;;;5051555;28;20155;-89
2022/01/28 09:06:10;;;;;;;19.67;3.80;;;5.00;99.90;;;;;;5052441;28;20040;-88
2022/01/28 09:08:43;;;;;;;20.03;4.40;;;3.90;99.90;;;;;;5051589;28;20123;-87
2022/01/28 09:11:52;;;;;;;16.58;3.20;;;4.90;99.90;;;;;;5053573;28;20128;-92
2022/01/28 09:14:07;;;;;;;16.10;3.53;;;5.00;99.90;;;;;;5049434;28;20102;-89
2022/01/28 09:16:32;;;;;;;14.90;3.43;;;3.80;99.90;;;;;;5051099;28;20493;-89
2022/01/28 09:19:04;;;;;;;18.70;3.30;;;5.10;99.90;;;;;;5051789;28;20037;-89
2022/01/28 09:21:30;;;;;;;18.93;3.40;;;3.80;99.90;;;;;;5051363;28;20041;-88
2022/01/28 09:23:55;;;;;;;19.30;4.57;;;5.00;99.90;;;;;;5051918;28;20049;-90
2022/01/28 09:26:21;;;;;;;20.40;3.53;;;4.00;99.90;;;;;;5051797;28;20045;-88
2022/01/28 09:28:46;;;;;;;16.13;3.30;;;5.70;99.90;;;;;;5051300;28;20041;-90
2022/01/28 09:31:12;;;;;;;15.93;2.87;;;4.10;99.90;;;;;;5051046;28;20057;-89
2022/01/28 09:33:38;;;;;;;21.40;3.60;;;5.90;99.90;;;;;;5051595;28;20135;-89
2022/01/28 09:36:06;;;;;;;18.07;3.57;;;4.40;99.90;;;;;;5051625;28;20515;-90
2022/01/28 09:38:31;;;;;;;23.67;3.70;;;4.70;99.90;;;;;;5050797;28;20056;-89
2022/01/28 09:41:00;;;;;;;21.27;4.00;;;4.60;99.90;;;;;;5052247;28;20394;-92
2022/01/28 09:43:33;;;;;;;18.23;3.10;;;4.70;99.90;;;;;;5024026;28;20077;-89
2022/01/28 09:46:08;;;;;;;23.77;4.10;;;4.90;99.90;;;;;;5013229;28;20053;-89
2022/01/28 09:48:47;;;;;;;21.77;3.40;;;5.10;99.90;;;;;;5012000;28;20486;-88
2022/01/28 09:51:19;;;;;;;20.80;3.40;;;4.60;99.90;;;;;;5011205;28;20081;-88
2022/01/28 09:53:45;;;;;;;20.30;3.83;;;4.70;99.90;;;;;;5025422;28;20049;-87
2022/01/28 09:56:10;;;;;;;18.03;2.97;;;5.70;99.90;;;;;;5030202;28;20048;-88
2022/01/28 09:58:37;;;;;;;17.87;3.13;;;5.10;99.90;;;;;;5025377;28;20050;-88
2022/01/28 10:01:11;;;;;;;20.57;3.67;;;5.20;99.90;;;;;;5032554;28;20493;-91
2022/01/28 10:03:40;;;;;;;18.47;3.30;;;6.60;99.90;;;;;;5013845;28;20049;-88
2022/01/28 10:06:29;;;;;;;15.67;3.23;;;5.90;99.90;;;;;;5014633;28;20518;-89
2022/01/28 10:09:23;;;;;;;19.70;3.20;;;5.70;99.90;;;;;;5015673;28;20429;-89
2022/01/28 10:12:30;;;;;;;19.97;3.90;;;5.90;99.90;;;;;;5014142;28;20049;-89
2022/01/28 10:15:17;;;;;;;19.03;3.67;;;6.00;99.90;;;;;;5015213;28;20111;-89
2022/01/28 10:17:58;;;;;;;21.10;3.43;;;5.30;99.90;;;;;;5017353;28;20444;-89
2022/01/28 10:20:43;;;;;;;21.57;3.63;;;5.60;99.90;;;;;;5013721;28;20453;-88
2022/01/28 10:23:12;;;;;;;20.07;3.50;;;5.50;99.90;;;;;;5015445;28;20064;-89
2022/01/28 10:26:06;;;;;;;19.00;3.57;;;6.50;99.90;;;;;;5014525;28;20417;-89
2022/01/28 10:28:51;;;;;;;21.35;3.58;;;5.60;99.90;;;;;;4983910;28;20061;-89
2022/01/28 10:31:20;;;;;;;17.40;3.17;;;5.50;99.90;;;;;;5015071;28;20052;-89
2022/01/28 10:34:26;;;;;;;21.93;3.50;;;5.70;99.90;;;;;;5013769;28;20057;-89
2022/01/28 10:37:24;;;;;;;18.70;3.67;;;6.90;99.90;;;;;;5001766;28;20575;-89
2022/01/28 10:40:33;;;;;;;20.63;3.53;;;6.10;99.90;;;;;;5014377;28;20053;-89
2022/01/28 10:43:08;;;;;;;14.77;3.70;;;5.90;99.90;;;;;;4916999;29;20103;-88
2022/01/28 10:45:41;;;;;;;27.13;4.57;;;5.70;99.90;;;;;;4916972;29;20050;-89
2022/01/28 10:48:22;;;;;;;18.23;3.75;;;6.80;99.90;;;;;;5032237;28;20127;-88
2022/01/28 10:50:48;;;;;;;16.80;3.40;;;5.90;99.90;;;;;;5016697;28;20432;-89
2022/01/28 10:53:21;;;;;;;21.30;3.73;;;6.00;99.90;;;;;;5015352;28;20049;-89
2022/01/28 10:55:53;;;;;;;22.10;3.57;;;5.90;99.90;;;;;;5013895;28;20041;-90
2022/01/28 11:01:31;;;;;;;23.83;3.70;;;6.20;99.90;;;;;;5049598;28;20088;-89
2022/01/28 11:04:00;;;;;;;21.90;3.77;;;7.20;99.90;;;;;;5051041;28;20048;-89
2022/01/28 11:06:26;;;;;;;18.53;3.70;;;6.30;99.90;;;;;;5051108;28;20095;-93
2022/01/28 11:08:52;;;;;;;18.50;4.27;;;7.50;99.90;;;;;;5039300;28;20450;-90
2022/01/28 11:11:35;;;;;;;17.50;4.00;;;7.10;99.90;;;;;;5030279;28;20072;-91
2022/01/28 11:14:20;;;;;;;18.45;3.80;;;6.20;99.90;;;;;;5030800;28;20129;-91
2022/01/28 11:16:46;;;;;;;27.83;3.73;;;8.00;99.90;;;;;;5028661;28;20045;-93
2022/01/28 11:19:31;;;;;;;22.47;4.37;;;6.90;99.90;;;;;;5030614;28;20042;-93
2022/01/28 11:22:43;;;;;;;20.30;3.57;;;6.70;99.90;;;;;;5029904;28;20033;-96
2022/01/28 11:25:36;;;;;;;16.40;2.97;;;6.90;99.90;;;;;;5029196;28;20045;-92
2022/01/28 11:28:08;;;;;;;19.07;3.57;;;6.40;99.90;;;;;;5031373;28;20132;-93
2022/01/28 11:30:34;;;;;;;16.87;3.70;;;7.50;99.90;;;;;;5030181;28;20108;-95
2022/01/28 11:33:19;;;;;;;18.13;3.67;;;7.80;99.90;;;;;;5034937;28;20117;-96
2022/01/28 11:35:51;;;;;;;20.67;4.10;;;7.30;99.90;;;;;;5050373;28;20045;-96
2022/01/28 11:38:27;;;;;;;21.37;3.63;;;7.60;99.90;;;;;;5038520;28;20060;-96
2022/01/28 11:41:29;;;;;;;19.03;3.70;;;7.50;99.90;;;;;;5023715;28;20045;-96
2022/01/28 11:43:56;;;;;;;14.63;3.47;;;7.20;99.90;;;;;;5031501;28;20124;-93
2022/01/28 11:47:00;;;;;;;21.33;3.73;;;6.90;99.90;;;;;;5035802;28;20056;-92
2022/01/28 11:49:26;;;;;;;16.77;3.63;;;7.20;99.90;;;;;;5026859;28;20054;-95
2022/01/28 11:51:52;;;;;;;18.20;3.53;;;7.20;99.90;;;;;;5034842;28;20052;-95
2022/01/28 11:54:41;;;;;;;23.97;3.87;;;7.40;99.90;;;;;;5036888;28;20045;-94
2022/01/28 11:57:26;;;;;;;19.63;3.63;;;7.60;99.90;;;;;;5034363;28;20053;-95
2022/01/28 12:00:21;;;;;;;19.27;3.77;;;7.10;99.90;;;;;;5035018;28;20061;-94
2022/01/28 12:03:28;;;;;;;24.57;4.20;;;7.20;99.90;;;;;;5047801;22;20083;-91
2022/01/28 12:06:08;;;;;;;16.13;3.23;;;7.00;99.90;;;;;;5052789;28;20048;-92
2022/01/28 12:08:36;;;;;;;17.77;3.00;;;6.40;99.90;;;;;;5056437;28;20087;-93
2022/01/28 12:11:06;;;;;;;15.20;3.83;;;7.80;99.90;;;;;;5060349;28;20045;-92
2022/01/28 12:16:57;;;;;;;19.23;3.55;;;6.90;99.90;;;;;;5046885;28;20485;-94
2022/01/28 12:19:31;;;;;;;19.03;3.53;;;7.40;99.90;;;;;;5044174;28;20543;-92
2022/01/28 12:22:24;;;;;;;16.50;3.53;;;7.10;99.90;;;;;;5033378;28;20044;-93
2022/01/28 12:24:57;;;;;;;17.60;3.33;;;7.10;99.90;;;;;;5051065;28;20239;-92
2022/01/28 12:28:24;;;;;;;18.27;3.15;;;7.70;99.90;;;;;;5048036;28;20052;-93
2022/01/28 12:33:54;;;;;;;17.67;3.75;;;6.30;99.90;;;;;;5008001;28;20144;-92
2022/01/28 12:36:21;;;;;;;18.60;3.37;;;8.00;99.90;;;;;;5004646;28;20379;-93
2022/01/28 12:44:38;;;;;;;15.83;2.90;;;7.40;99.90;;;;;;5004427;28;20089;-91
2022/01/28 12:47:10;;;;;;;21.20;3.83;;;7.10;99.90;;;;;;5007933;28;20122;-91
2022/01/28 12:52:48;;;;;;;24.00;3.90;;;8.20;99.90;;;;;;5144303;22;20061;-92
2022/01/28 12:55:17;;;;;;;32.17;14.13;;;8.20;99.90;;;;;;5038433;28;20094;-90
2022/01/28 12:57:58;;;;;;;19.57;3.50;;;7.50;99.90;;;;;;5110554;23;20067;-90
2022/01/28 13:00:24;;;;;;;20.13;3.63;;;8.20;99.90;;;;;;5005521;28;20556;-90
2022/01/28 13:03:04;;;;;;;18.33;4.07;;;7.40;99.90;;;;;;5005627;28;20034;-89
2022/01/28 13:05:43;;;;;;;22.07;3.77;;;7.30;99.90;;;;;;5031377;28;20041;-90
2022/01/28 13:08:27;;;;;;;16.53;4.20;;;8.80;99.90;;;;;;5006820;28;20038;-91
2022/01/28 13:10:54;;;;;;;17.08;4.10;;;7.40;99.90;;;;;;5034713;23;20599;-89
2022/01/28 13:13:22;;;;;;;20.27;3.40;;;7.00;99.90;;;;;;5043131;28;20033;-91
2022/01/28 13:18:23;;;;;;;17.43;4.70;;;7.20;99.90;;;;;;5066882;23;20142;-90
2022/01/28 13:20:59;;;;;;;18.30;3.67;;;7.20;99.90;;;;;;5053830;22;20136;-89
2022/01/28 13:24:34;;;;;;;19.87;6.13;;;8.70;99.90;;;;;;5035839;28;20095;-91
2022/01/28 13:27:09;;;;;;;14.85;3.83;;;7.70;99.90;;;;;;5032824;28;20128;-91
2022/01/28 13:29:48;;;;;;;16.80;3.73;;;7.20;99.90;;;;;;5031960;28;20069;-91
2022/01/28 13:32:49;;;;;;;22.43;5.10;;;7.00;99.90;;;;;;5032908;28;20131;-91
2022/01/28 13:35:25;;;;;;;16.77;3.40;;;7.50;99.90;;;;;;5034172;28;20046;-91
2022/01/28 13:37:59;;;;;;;22.97;5.43;;;7.30;99.90;;;;;;5034708;28;20114;-91
2022/01/28 13:41:41;;;;;;;22.90;7.03;;;7.50;99.90;;;;;;5030933;28;20049;-91
2022/01/28 13:44:20;;;;;;;20.53;5.30;;;7.50;99.90;;;;;;4938830;28;20074;-92
2022/01/28 13:47:21;;;;;;;24.47;8.07;;;8.00;99.90;;;;;;4957494;28;20101;-91
2022/01/28 13:49:57;;;;;;;28.70;7.33;;;7.70;99.90;;;;;;4956192;28;20101;-91
2022/01/28 13:52:40;;;;;;;20.93;5.30;;;7.30;99.90;;;;;;4957198;28;20113;-91
2022/01/28 13:56:01;;;;;;;16.90;4.77;;;7.20;99.90;;;;;;4955168;28;20051;-88
2022/01/28 13:58:59;;;;;;;23.30;5.50;;;7.20;99.90;;;;;;4955597;28;20051;-91
2022/01/28 14:01:35;;;;;;;17.43;3.40;;;6.70;99.90;;;;;;5070395;28;20088;-92
2022/01/28 14:04:20;;;;;;;19.10;4.00;;;7.90;99.90;;;;;;5148073;22;20190;-91
2022/01/28 14:06:46;;;;;;;17.90;3.43;;;6.70;99.90;;;;;;5015717;28;20551;-91
2022/01/28 14:09:21;;;;;;;17.27;3.37;;;6.40;99.90;;;;;;5015257;28;20188;-90
2022/01/28 14:12:00;;;;;;;18.73;3.80;;;6.70;99.90;;;;;;5017291;28;20029;-91
2022/01/28 14:14:47;;;;;;;18.53;3.40;;;6.50;99.90;;;;;;5014166;28;20463;-91
2022/01/28 14:19:58;;;;;;;17.87;3.97;;;6.40;99.90;;;;;;5119107;23;20053;-92
2022/01/28 14:22:24;;;;;;;19.83;5.50;;;7.40;99.90;;;;;;5055123;28;20051;-92
2022/01/28 14:24:59;;;;;;;19.20;3.50;;;6.80;99.90;;;;;;5054567;28;20055;-90
2022/01/28 14:33:02;;;;;;;26.30;8.30;;;6.60;99.90;;;;;;5045446;28;20064;-91
2022/01/28 14:35:36;;;;;;;20.33;4.97;;;6.20;99.90;;;;;;5054888;28;20045;-90
2022/01/28 14:38:14;;;;;;;25.57;8.77;;;7.70;99.90;;;;;;5055451;28;20047;-90
2022/01/28 14:40:44;;;;;;;27.07;7.13;;;7.10;99.90;;;;;;5104322;22;20076;-90
2022/01/28 14:43:20;;;;;;;26.20;9.90;;;6.50;99.90;;;;;;5062664;22;20052;-90
2022/01/28 14:46:54;;;;;;;29.47;7.97;;;5.80;99.90;;;;;;5014669;28;20055;-90
2022/01/28 14:50:37;;;;;;;21.47;5.20;;;6.70;99.90;;;;;;5014941;28;20045;-91
2022/01/28 14:54:03;;;;;;;21.97;7.73;;;6.70;99.90;;;;;;5014200;28;20300;-91
2022/01/28 14:56:35;;;;;;;23.97;3.53;;;5.90;99.90;;;;;;5014504;28;20456;-91
2022/01/28 14:59:15;;;;;;;20.27;4.47;;;6.40;99.90;;;;;;5015470;28;20397;-91
2022/01/28 15:01:41;;;;;;;21.63;6.33;;;7.10;99.90;;;;;;5009363;28;20445;-91
2022/01/28 15:04:06;;;;;;;23.20;5.37;;;6.30;99.90;;;;;;4999864;28;20045;-92